sensor_id;sensor_type;location;lat;lon;timestamp;temperature;humidity
59505;DHT22;45321;53.200;5.814;2022-08-03T00:00:07;21.20;80.60
59505;DHT22;45321;53.200;5.814;2022-08-03T00:02:33;21.10;80.60
59505;DHT22;45321;53.200;5.814;2022-08-03T00:04:59;21.10;80.90
59505;DHT22;45321;53.200;5.814;2022-08-03T00:07:24;21.10;80.90
59505;DHT22;45321;53.200;5.814;2022-08-03T00:09:50;21.00;80.90
59505;DHT22;45321;53.200;5.814;2022-08-03T00:12:16;20.90;81.00
59505;DHT22;45321;53.200;5.814;2022-08-03T00:14:41;21.00;81.10
59505;DHT22;45321;53.200;5.814;2022-08-03T00:17:07;21.00;81.10
59505;DHT22;45321;53.200;5.814;2022-08-03T00:19:33;21.00;81.30
59505;DHT22;45321;53.200;5.814;2022-08-03T00:21:58;21.00;81.20
59505;DHT22;45321;53.200;5.814;2022-08-03T00:24:24;21.00;81.40
59505;DHT22;45321;53.200;5.814;2022-08-03T00:26:49;20.90;81.40
59505;DHT22;45321;53.200;5.814;2022-08-03T00:29:15;20.90;81.50
59505;DHT22;45321;53.200;5.814;2022-08-03T00:31:40;20.90;81.70
59505;DHT22;45321;53.200;5.814;2022-08-03T00:34:06;20.90;81.80
59505;DHT22;45321;53.200;5.814;2022-08-03T00:36:32;20.90;82.00
59505;DHT22;45321;53.200;5.814;2022-08-03T00:38:57;20.80;81.80
59505;DHT22;45321;53.200;5.814;2022-08-03T00:41:23;20.80;81.90
59505;DHT22;45321;53.200;5.814;2022-08-03T00:43:49;20.80;81.80
59505;DHT22;45321;53.200;5.814;2022-08-03T00:46:14;20.80;81.80
59505;DHT22;45321;53.200;5.814;2022-08-03T00:48:40;20.80;82.00
59505;DHT22;45321;53.200;5.814;2022-08-03T00:51:06;20.80;82.10
59505;DHT22;45321;53.200;5.814;2022-08-03T00:53:32;20.70;82.50
59505;DHT22;45321;53.200;5.814;2022-08-03T00:55:59;20.70;82.40
59505;DHT22;45321;53.200;5.814;2022-08-03T00:58:24;20.70;82.30
59505;DHT22;45321;53.200;5.814;2022-08-03T01:00:50;20.70;82.40
59505;DHT22;45321;53.200;5.814;2022-08-03T01:03:15;20.70;82.50
59505;DHT22;45321;53.200;5.814;2022-08-03T01:13:53;20.70;82.50
59505;DHT22;45321;53.200;5.814;2022-08-03T01:16:29;20.70;82.50
59505;DHT22;45321;53.200;5.814;2022-08-03T01:19:01;20.70;82.50
59505;DHT22;45321;53.200;5.814;2022-08-03T01:21:39;20.70;82.40
59505;DHT22;45321;53.200;5.814;2022-08-03T01:27:30;20.70;82.50
59505;DHT22;45321;53.200;5.814;2022-08-03T01:32:17;20.70;82.70
59505;DHT22;45321;53.200;5.814;2022-08-03T01:34:44;20.70;83.00
59505;DHT22;45321;53.200;5.814;2022-08-03T01:37:11;20.60;83.00
59505;DHT22;45321;53.200;5.814;2022-08-03T01:39:37;20.60;82.90
59505;DHT22;45321;53.200;5.814;2022-08-03T01:42:05;20.60;83.20
59505;DHT22;45321;53.200;5.814;2022-08-03T01:44:32;20.60;83.50
59505;DHT22;45321;53.200;5.814;2022-08-03T01:47:00;20.60;83.10
59505;DHT22;45321;53.200;5.814;2022-08-03T01:49:27;20.60;83.00
59505;DHT22;45321;53.200;5.814;2022-08-03T01:51:54;20.60;83.00
59505;DHT22;45321;53.200;5.814;2022-08-03T01:54:20;20.60;83.40
59505;DHT22;45321;53.200;5.814;2022-08-03T01:56:47;20.60;83.50
59505;DHT22;45321;53.200;5.814;2022-08-03T01:59:13;20.60;83.20
59505;DHT22;45321;53.200;5.814;2022-08-03T02:01:40;20.60;83.30
59505;DHT22;45321;53.200;5.814;2022-08-03T02:04:07;20.60;83.20
59505;DHT22;45321;53.200;5.814;2022-08-03T02:06:33;20.50;83.30
59505;DHT22;45321;53.200;5.814;2022-08-03T02:09:00;20.50;83.30
59505;DHT22;45321;53.200;5.814;2022-08-03T02:11:27;20.60;83.30
59505;DHT22;45321;53.200;5.814;2022-08-03T02:13:54;20.50;83.70
59505;DHT22;45321;53.200;5.814;2022-08-03T02:16:20;20.50;83.70
59505;DHT22;45321;53.200;5.814;2022-08-03T02:18:46;20.50;83.90
59505;DHT22;45321;53.200;5.814;2022-08-03T02:21:12;20.50;83.70
59505;DHT22;45321;53.200;5.814;2022-08-03T02:23:39;20.50;83.50
59505;DHT22;45321;53.200;5.814;2022-08-03T02:26:05;20.60;83.50
59505;DHT22;45321;53.200;5.814;2022-08-03T02:28:33;20.50;83.50
59505;DHT22;45321;53.200;5.814;2022-08-03T02:31:00;20.50;83.50
59505;DHT22;45321;53.200;5.814;2022-08-03T02:33:31;20.50;83.50
59505;DHT22;45321;53.200;5.814;2022-08-03T02:35:57;20.50;83.60
59505;DHT22;45321;53.200;5.814;2022-08-03T02:38:25;20.50;83.70
59505;DHT22;45321;53.200;5.814;2022-08-03T02:40:52;20.50;83.90
59505;DHT22;45321;53.200;5.814;2022-08-03T02:43:20;20.50;83.80
59505;DHT22;45321;53.200;5.814;2022-08-03T02:45:46;20.40;83.80
59505;DHT22;45321;53.200;5.814;2022-08-03T02:48:16;20.40;83.80
59505;DHT22;45321;53.200;5.814;2022-08-03T02:50:43;20.40;83.90
59505;DHT22;45321;53.200;5.814;2022-08-03T02:53:09;20.40;83.80
59505;DHT22;45321;53.200;5.814;2022-08-03T02:55:36;20.30;84.00
59505;DHT22;45321;53.200;5.814;2022-08-03T02:58:01;20.30;84.10
59505;DHT22;45321;53.200;5.814;2022-08-03T03:00:28;20.30;84.00
59505;DHT22;45321;53.200;5.814;2022-08-03T03:02:58;20.30;84.30
59505;DHT22;45321;53.200;5.814;2022-08-03T03:05:24;20.30;84.10
59505;DHT22;45321;53.200;5.814;2022-08-03T03:07:50;20.30;84.30
59505;DHT22;45321;53.200;5.814;2022-08-03T03:10:16;20.30;84.20
59505;DHT22;45321;53.200;5.814;2022-08-03T03:12:41;20.30;84.20
59505;DHT22;45321;53.200;5.814;2022-08-03T03:15:07;20.20;84.20
59505;DHT22;45321;53.200;5.814;2022-08-03T03:17:33;20.30;84.20
59505;DHT22;45321;53.200;5.814;2022-08-03T03:19:59;20.20;84.30
59505;DHT22;45321;53.200;5.814;2022-08-03T03:22:25;20.20;84.10
59505;DHT22;45321;53.200;5.814;2022-08-03T03:24:51;20.20;84.20
59505;DHT22;45321;53.200;5.814;2022-08-03T03:27:17;20.20;84.40
59505;DHT22;45321;53.200;5.814;2022-08-03T03:29:43;20.20;84.40
59505;DHT22;45321;53.200;5.814;2022-08-03T03:32:09;20.20;84.40
59505;DHT22;45321;53.200;5.814;2022-08-03T03:34:34;20.30;84.30
59505;DHT22;45321;53.200;5.814;2022-08-03T03:37:00;20.30;84.40
59505;DHT22;45321;53.200;5.814;2022-08-03T03:39:26;20.20;84.40
59505;DHT22;45321;53.200;5.814;2022-08-03T03:41:52;20.20;84.60
59505;DHT22;45321;53.200;5.814;2022-08-03T03:44:17;20.20;84.70
59505;DHT22;45321;53.200;5.814;2022-08-03T03:46:43;20.20;84.90
59505;DHT22;45321;53.200;5.814;2022-08-03T03:49:09;20.20;84.60
59505;DHT22;45321;53.200;5.814;2022-08-03T03:51:34;20.20;84.60
59505;DHT22;45321;53.200;5.814;2022-08-03T03:54:01;20.20;84.60
59505;DHT22;45321;53.200;5.814;2022-08-03T03:56:27;20.20;84.70
59505;DHT22;45321;53.200;5.814;2022-08-03T03:58:53;20.20;84.70
59505;DHT22;45321;53.200;5.814;2022-08-03T04:01:19;20.20;84.90
59505;DHT22;45321;53.200;5.814;2022-08-03T04:03:44;20.20;84.70
59505;DHT22;45321;53.200;5.814;2022-08-03T04:06:10;20.20;84.70
59505;DHT22;45321;53.200;5.814;2022-08-03T04:08:55;20.20;84.80
59505;DHT22;45321;53.200;5.814;2022-08-03T04:11:41;20.20;84.80
59505;DHT22;45321;53.200;5.814;2022-08-03T04:14:12;20.20;84.80
59505;DHT22;45321;53.200;5.814;2022-08-03T04:16:39;20.20;85.00
59505;DHT22;45321;53.200;5.814;2022-08-03T04:19:09;20.20;84.80
59505;DHT22;45321;53.200;5.814;2022-08-03T04:21:36;20.20;85.00
59505;DHT22;45321;53.200;5.814;2022-08-03T04:24:02;20.20;84.90
59505;DHT22;45321;53.200;5.814;2022-08-03T04:26:32;20.20;85.00
59505;DHT22;45321;53.200;5.814;2022-08-03T04:28:58;20.20;84.90
59505;DHT22;45321;53.200;5.814;2022-08-03T04:31:24;20.20;85.00
59505;DHT22;45321;53.200;5.814;2022-08-03T04:33:51;20.20;84.90
59505;DHT22;45321;53.200;5.814;2022-08-03T04:36:18;20.20;85.00
59505;DHT22;45321;53.200;5.814;2022-08-03T04:39:05;20.20;85.00
59505;DHT22;45321;53.200;5.814;2022-08-03T04:41:32;20.20;85.00
59505;DHT22;45321;53.200;5.814;2022-08-03T04:43:59;20.20;85.10
59505;DHT22;45321;53.200;5.814;2022-08-03T04:46:26;20.20;85.00
59505;DHT22;45321;53.200;5.814;2022-08-03T04:48:52;20.20;85.00
59505;DHT22;45321;53.200;5.814;2022-08-03T04:51:18;20.20;85.10
59505;DHT22;45321;53.200;5.814;2022-08-03T04:53:43;20.20;85.10
59505;DHT22;45321;53.200;5.814;2022-08-03T04:56:09;20.20;85.30
59505;DHT22;45321;53.200;5.814;2022-08-03T04:58:34;20.20;85.20
59505;DHT22;45321;53.200;5.814;2022-08-03T05:01:00;20.30;85.30
59505;DHT22;45321;53.200;5.814;2022-08-03T05:03:26;20.20;85.40
59505;DHT22;45321;53.200;5.814;2022-08-03T05:05:52;20.20;85.50
59505;DHT22;45321;53.200;5.814;2022-08-03T05:08:17;20.20;85.80
59505;DHT22;45321;53.200;5.814;2022-08-03T05:10:43;20.20;85.50
59505;DHT22;45321;53.200;5.814;2022-08-03T05:13:09;20.20;85.60
59505;DHT22;45321;53.200;5.814;2022-08-03T05:15:37;20.30;85.70
59505;DHT22;45321;53.200;5.814;2022-08-03T05:18:02;20.30;85.60
59505;DHT22;45321;53.200;5.814;2022-08-03T05:20:28;20.30;85.80
59505;DHT22;45321;53.200;5.814;2022-08-03T05:22:54;20.30;85.70
59505;DHT22;45321;53.200;5.814;2022-08-03T05:25:19;20.30;85.80
59505;DHT22;45321;53.200;5.814;2022-08-03T05:27:45;20.30;85.70
59505;DHT22;45321;53.200;5.814;2022-08-03T05:30:10;20.30;85.80
59505;DHT22;45321;53.200;5.814;2022-08-03T05:32:36;20.30;85.90
59505;DHT22;45321;53.200;5.814;2022-08-03T05:35:01;20.40;86.00
59505;DHT22;45321;53.200;5.814;2022-08-03T05:37:27;20.30;86.00
59505;DHT22;45321;53.200;5.814;2022-08-03T05:39:53;20.40;86.10
59505;DHT22;45321;53.200;5.814;2022-08-03T05:42:18;20.40;86.30
59505;DHT22;45321;53.200;5.814;2022-08-03T05:44:44;20.40;86.10
59505;DHT22;45321;53.200;5.814;2022-08-03T05:47:09;20.40;86.10
59505;DHT22;45321;53.200;5.814;2022-08-03T05:49:35;20.50;86.30
59505;DHT22;45321;53.200;5.814;2022-08-03T05:52:00;20.50;86.30
59505;DHT22;45321;53.200;5.814;2022-08-03T05:54:26;20.60;86.20
59505;DHT22;45321;53.200;5.814;2022-08-03T05:56:52;20.60;86.20
59505;DHT22;45321;53.200;5.814;2022-08-03T05:59:17;20.60;86.10
59505;DHT22;45321;53.200;5.814;2022-08-03T06:01:43;20.60;86.20
59505;DHT22;45321;53.200;5.814;2022-08-03T06:04:09;20.70;86.50
59505;DHT22;45321;53.200;5.814;2022-08-03T06:06:35;20.70;86.20
59505;DHT22;45321;53.200;5.814;2022-08-03T06:09:00;20.70;86.30
59505;DHT22;45321;53.200;5.814;2022-08-03T06:11:26;20.70;86.40
59505;DHT22;45321;53.200;5.814;2022-08-03T06:13:51;20.70;86.10
59505;DHT22;45321;53.200;5.814;2022-08-03T06:16:17;20.70;86.00
59505;DHT22;45321;53.200;5.814;2022-08-03T06:18:43;20.80;85.90
59505;DHT22;45321;53.200;5.814;2022-08-03T06:21:08;20.80;86.00
59505;DHT22;45321;53.200;5.814;2022-08-03T06:23:34;20.80;85.90
59505;DHT22;45321;53.200;5.814;2022-08-03T06:26:01;20.80;85.90
59505;DHT22;45321;53.200;5.814;2022-08-03T06:28:27;20.80;85.90
59505;DHT22;45321;53.200;5.814;2022-08-03T06:30:52;20.90;85.90
59505;DHT22;45321;53.200;5.814;2022-08-03T06:33:18;20.90;86.00
59505;DHT22;45321;53.200;5.814;2022-08-03T06:35:44;21.00;86.00
59505;DHT22;45321;53.200;5.814;2022-08-03T06:38:09;21.00;85.80
59505;DHT22;45321;53.200;5.814;2022-08-03T06:40:35;21.10;85.90
59505;DHT22;45321;53.200;5.814;2022-08-03T06:43:04;21.20;85.60
59505;DHT22;45321;53.200;5.814;2022-08-03T06:45:30;21.20;85.50
59505;DHT22;45321;53.200;5.814;2022-08-03T06:48:04;21.30;85.40
59505;DHT22;45321;53.200;5.814;2022-08-03T06:50:30;21.40;84.90
59505;DHT22;45321;53.200;5.814;2022-08-03T06:52:56;21.40;84.70
59505;DHT22;45321;53.200;5.814;2022-08-03T06:55:22;21.40;84.50
59505;DHT22;45321;53.200;5.814;2022-08-03T06:57:47;21.50;84.30
59505;DHT22;45321;53.200;5.814;2022-08-03T07:00:13;21.40;84.40
59505;DHT22;45321;53.200;5.814;2022-08-03T07:02:39;21.50;84.40
59505;DHT22;45321;53.200;5.814;2022-08-03T07:05:04;21.60;84.40
59505;DHT22;45321;53.200;5.814;2022-08-03T07:07:31;21.60;84.50
59505;DHT22;45321;53.200;5.814;2022-08-03T07:09:56;21.70;84.60
59505;DHT22;45321;53.200;5.814;2022-08-03T07:12:22;21.70;84.50
59505;DHT22;45321;53.200;5.814;2022-08-03T07:14:47;21.80;84.30
59505;DHT22;45321;53.200;5.814;2022-08-03T07:17:13;22.00;84.20
59505;DHT22;45321;53.200;5.814;2022-08-03T07:19:38;22.10;83.70
59505;DHT22;45321;53.200;5.814;2022-08-03T07:22:04;22.30;83.70
59505;DHT22;45321;53.200;5.814;2022-08-03T07:24:30;22.30;83.20
59505;DHT22;45321;53.200;5.814;2022-08-03T07:26:56;22.40;82.60
59505;DHT22;45321;53.200;5.814;2022-08-03T07:29:21;22.50;82.50
59505;DHT22;45321;53.200;5.814;2022-08-03T07:31:47;22.50;82.20
59505;DHT22;45321;53.200;5.814;2022-08-03T07:34:13;22.50;82.30
59505;DHT22;45321;53.200;5.814;2022-08-03T07:36:38;22.50;82.30
59505;DHT22;45321;53.200;5.814;2022-08-03T07:39:04;22.60;82.30
59505;DHT22;45321;53.200;5.814;2022-08-03T07:41:30;22.70;82.40
59505;DHT22;45321;53.200;5.814;2022-08-03T07:43:56;22.80;81.50
59505;DHT22;45321;53.200;5.814;2022-08-03T07:46:21;22.90;81.50
59505;DHT22;45321;53.200;5.814;2022-08-03T07:48:47;22.90;81.40
59505;DHT22;45321;53.200;5.814;2022-08-03T07:51:13;23.00;81.30
59505;DHT22;45321;53.200;5.814;2022-08-03T07:53:38;23.00;80.90
59505;DHT22;45321;53.200;5.814;2022-08-03T07:56:04;23.10;80.90
59505;DHT22;45321;53.200;5.814;2022-08-03T07:58:30;23.10;80.80
59505;DHT22;45321;53.200;5.814;2022-08-03T08:00:55;23.10;80.80
59505;DHT22;45321;53.200;5.814;2022-08-03T08:03:21;23.20;80.90
59505;DHT22;45321;53.200;5.814;2022-08-03T08:05:46;23.20;80.90
59505;DHT22;45321;53.200;5.814;2022-08-03T08:08:12;23.30;80.60
59505;DHT22;45321;53.200;5.814;2022-08-03T08:10:38;23.30;80.20
59505;DHT22;45321;53.200;5.814;2022-08-03T08:13:03;23.20;80.70
59505;DHT22;45321;53.200;5.814;2022-08-03T08:15:29;23.20;80.50
59505;DHT22;45321;53.200;5.814;2022-08-03T08:17:55;23.20;80.80
59505;DHT22;45321;53.200;5.814;2022-08-03T08:20:23;23.20;81.00
59505;DHT22;45321;53.200;5.814;2022-08-03T08:22:49;23.40;80.70
59505;DHT22;45321;53.200;5.814;2022-08-03T08:25:14;23.50;81.20
59505;DHT22;45321;53.200;5.814;2022-08-03T08:27:41;23.60;79.80
59505;DHT22;45321;53.200;5.814;2022-08-03T08:30:06;23.60;79.80
59505;DHT22;45321;53.200;5.814;2022-08-03T08:32:33;23.60;79.30
59505;DHT22;45321;53.200;5.814;2022-08-03T08:34:59;23.60;79.60
59505;DHT22;45321;53.200;5.814;2022-08-03T08:37:24;23.60;79.60
59505;DHT22;45321;53.200;5.814;2022-08-03T08:39:50;23.60;79.80
59505;DHT22;45321;53.200;5.814;2022-08-03T08:42:16;23.60;80.20
59505;DHT22;45321;53.200;5.814;2022-08-03T08:44:41;23.70;79.70
59505;DHT22;45321;53.200;5.814;2022-08-03T08:47:07;23.70;79.50
59505;DHT22;45321;53.200;5.814;2022-08-03T08:49:34;23.70;79.60
59505;DHT22;45321;53.200;5.814;2022-08-03T08:52:00;23.80;79.40
59505;DHT22;45321;53.200;5.814;2022-08-03T08:54:27;23.80;79.00
59505;DHT22;45321;53.200;5.814;2022-08-03T08:56:53;23.90;79.00
59505;DHT22;45321;53.200;5.814;2022-08-03T08:59:21;24.00;78.50
59505;DHT22;45321;53.200;5.814;2022-08-03T09:01:46;24.10;78.50
59505;DHT22;45321;53.200;5.814;2022-08-03T09:04:12;24.20;78.50
59505;DHT22;45321;53.200;5.814;2022-08-03T09:06:38;24.40;78.30
59505;DHT22;45321;53.200;5.814;2022-08-03T09:09:04;24.50;77.40
59505;DHT22;45321;53.200;5.814;2022-08-03T09:11:30;24.50;77.50
59505;DHT22;45321;53.200;5.814;2022-08-03T09:13:56;24.50;77.20
59505;DHT22;45321;53.200;5.814;2022-08-03T09:16:22;24.50;77.30
59505;DHT22;45321;53.200;5.814;2022-08-03T09:18:49;24.60;77.40
59505;DHT22;45321;53.200;5.814;2022-08-03T09:23:48;24.70;76.80
59505;DHT22;45321;53.200;5.814;2022-08-03T09:26:24;24.70;76.40
59505;DHT22;45321;53.200;5.814;2022-08-03T09:28:54;24.80;75.90
59505;DHT22;45321;53.200;5.814;2022-08-03T09:31:34;24.90;76.20
59505;DHT22;45321;53.200;5.814;2022-08-03T09:34:03;24.80;75.30
59505;DHT22;45321;53.200;5.814;2022-08-03T09:36:32;24.80;75.70
59505;DHT22;45321;53.200;5.814;2022-08-03T09:39:02;24.70;76.20
59505;DHT22;45321;53.200;5.814;2022-08-03T09:41:30;24.80;76.10
59505;DHT22;45321;53.200;5.814;2022-08-03T09:43:56;24.80;75.70
59505;DHT22;45321;53.200;5.814;2022-08-03T09:46:22;24.80;76.20
59505;DHT22;45321;53.200;5.814;2022-08-03T09:48:48;24.80;75.80
59505;DHT22;45321;53.200;5.814;2022-08-03T09:51:13;24.80;76.40
59505;DHT22;45321;53.200;5.814;2022-08-03T09:53:46;24.90;76.50
59505;DHT22;45321;53.200;5.814;2022-08-03T09:56:12;25.00;75.80
59505;DHT22;45321;53.200;5.814;2022-08-03T09:58:44;25.00;75.00
59505;DHT22;45321;53.200;5.814;2022-08-03T10:01:10;25.00;75.00
59505;DHT22;45321;53.200;5.814;2022-08-03T10:03:36;25.00;75.30
59505;DHT22;45321;53.200;5.814;2022-08-03T10:06:15;25.00;74.40
59505;DHT22;45321;53.200;5.814;2022-08-03T10:08:41;25.00;75.00
59505;DHT22;45321;53.200;5.814;2022-08-03T10:11:07;25.10;75.60
59505;DHT22;45321;53.200;5.814;2022-08-03T10:13:33;25.20;75.60
59505;DHT22;45321;53.200;5.814;2022-08-03T10:15:58;25.20;75.00
59505;DHT22;45321;53.200;5.814;2022-08-03T10:18:24;25.20;74.40
59505;DHT22;45321;53.200;5.814;2022-08-03T10:20:51;25.20;74.60
59505;DHT22;45321;53.200;5.814;2022-08-03T10:23:17;25.20;74.60
59505;DHT22;45321;53.200;5.814;2022-08-03T10:25:45;25.20;75.00
59505;DHT22;45321;53.200;5.814;2022-08-03T10:28:12;25.20;75.20
59505;DHT22;45321;53.200;5.814;2022-08-03T10:30:40;25.10;74.30
59505;DHT22;45321;53.200;5.814;2022-08-03T10:33:12;25.10;75.10
59505;DHT22;45321;53.200;5.814;2022-08-03T10:35:39;25.20;75.30
59505;DHT22;45321;53.200;5.814;2022-08-03T10:38:09;25.20;74.70
59505;DHT22;45321;53.200;5.814;2022-08-03T10:40:39;25.20;74.30
59505;DHT22;45321;53.200;5.814;2022-08-03T10:43:11;25.20;74.30
59505;DHT22;45321;53.200;5.814;2022-08-03T10:45:41;25.30;75.20
59505;DHT22;45321;53.200;5.814;2022-08-03T10:48:07;25.50;74.30
59505;DHT22;45321;53.200;5.814;2022-08-03T10:50:33;25.60;73.50
59505;DHT22;45321;53.200;5.814;2022-08-03T10:53:00;25.60;72.70
59505;DHT22;45321;53.200;5.814;2022-08-03T10:58:33;25.50;72.90
59505;DHT22;45321;53.200;5.814;2022-08-03T11:01:00;25.50;73.50
59505;DHT22;45321;53.200;5.814;2022-08-03T11:03:26;25.50;73.20
59505;DHT22;45321;53.200;5.814;2022-08-03T11:05:51;25.50;73.10
59505;DHT22;45321;53.200;5.814;2022-08-03T11:08:24;25.60;73.70
59505;DHT22;45321;53.200;5.814;2022-08-03T11:10:51;25.70;71.80
59505;DHT22;45321;53.200;5.814;2022-08-03T11:13:18;25.80;72.50
59505;DHT22;45321;53.200;5.814;2022-08-03T11:15:45;25.90;71.40
59505;DHT22;45321;53.200;5.814;2022-08-03T11:18:11;25.80;72.00
59505;DHT22;45321;53.200;5.814;2022-08-03T11:20:44;25.80;72.00
59505;DHT22;45321;53.200;5.814;2022-08-03T11:23:10;25.70;71.80
59505;DHT22;45321;53.200;5.814;2022-08-03T11:28:29;25.70;72.90
59505;DHT22;45321;53.200;5.814;2022-08-03T11:30:54;25.70;73.00
59505;DHT22;45321;53.200;5.814;2022-08-03T11:33:29;25.90;71.70
59505;DHT22;45321;53.200;5.814;2022-08-03T11:35:59;26.10;71.60
59505;DHT22;45321;53.200;5.814;2022-08-03T11:38:25;26.20;71.30
59505;DHT22;45321;53.200;5.814;2022-08-03T11:40:51;26.30;70.70
59505;DHT22;45321;53.200;5.814;2022-08-03T11:45:56;26.40;70.00
59505;DHT22;45321;53.200;5.814;2022-08-03T11:48:21;26.30;70.30
59505;DHT22;45321;53.200;5.814;2022-08-03T11:50:47;26.20;70.60
59505;DHT22;45321;53.200;5.814;2022-08-03T11:53:15;26.20;70.30
59505;DHT22;45321;53.200;5.814;2022-08-03T11:55:41;26.10;70.60
59505;DHT22;45321;53.200;5.814;2022-08-03T11:58:14;26.00;70.80
59505;DHT22;45321;53.200;5.814;2022-08-03T12:00:39;26.00;70.60
59505;DHT22;45321;53.200;5.814;2022-08-03T12:03:09;26.10;71.10
59505;DHT22;45321;53.200;5.814;2022-08-03T12:05:43;26.20;70.70
59505;DHT22;45321;53.200;5.814;2022-08-03T12:08:09;26.50;69.30
59505;DHT22;45321;53.200;5.814;2022-08-03T12:10:36;26.70;69.70
59505;DHT22;45321;53.200;5.814;2022-08-03T12:13:02;26.80;68.90
59505;DHT22;45321;53.200;5.814;2022-08-03T12:15:31;27.10;68.70
59505;DHT22;45321;53.200;5.814;2022-08-03T12:18:00;27.20;68.20
59505;DHT22;45321;53.200;5.814;2022-08-03T12:20:27;27.20;66.80
59505;DHT22;45321;53.200;5.814;2022-08-03T12:22:52;27.30;66.70
59505;DHT22;45321;53.200;5.814;2022-08-03T12:25:22;27.40;66.90
59505;DHT22;45321;53.200;5.814;2022-08-03T12:27:49;27.50;65.80
59505;DHT22;45321;53.200;5.814;2022-08-03T12:30:15;27.40;66.00
59505;DHT22;45321;53.200;5.814;2022-08-03T12:32:42;27.40;66.30
59505;DHT22;45321;53.200;5.814;2022-08-03T12:35:08;27.50;66.60
59505;DHT22;45321;53.200;5.814;2022-08-03T12:37:34;27.60;66.60
59505;DHT22;45321;53.200;5.814;2022-08-03T12:40:00;27.80;66.20
59505;DHT22;45321;53.200;5.814;2022-08-03T12:42:32;27.90;64.90
59505;DHT22;45321;53.200;5.814;2022-08-03T12:44:58;28.10;65.30
59505;DHT22;45321;53.200;5.814;2022-08-03T12:47:23;28.00;63.90
59505;DHT22;45321;53.200;5.814;2022-08-03T12:49:50;28.00;64.20
59505;DHT22;45321;53.200;5.814;2022-08-03T12:52:17;28.00;65.70
59505;DHT22;45321;53.200;5.814;2022-08-03T12:54:42;28.10;65.90
59505;DHT22;45321;53.200;5.814;2022-08-03T12:57:18;28.20;65.00
59505;DHT22;45321;53.200;5.814;2022-08-03T12:59:44;28.20;64.90
59505;DHT22;45321;53.200;5.814;2022-08-03T13:02:23;28.30;64.80
59505;DHT22;45321;53.200;5.814;2022-08-03T13:04:50;28.40;64.90
59505;DHT22;45321;53.200;5.814;2022-08-03T13:07:16;28.60;64.40
59505;DHT22;45321;53.200;5.814;2022-08-03T13:09:43;28.70;63.70
59505;DHT22;45321;53.200;5.814;2022-08-03T13:12:09;28.60;63.70
59505;DHT22;45321;53.200;5.814;2022-08-03T13:14:35;28.60;63.70
59505;DHT22;45321;53.200;5.814;2022-08-03T13:17:01;28.60;62.90
59505;DHT22;45321;53.200;5.814;2022-08-03T13:19:28;28.60;62.80
59505;DHT22;45321;53.200;5.814;2022-08-03T13:21:53;28.60;63.10
59505;DHT22;45321;53.200;5.814;2022-08-03T13:24:19;28.60;63.10
59505;DHT22;45321;53.200;5.814;2022-08-03T13:26:45;28.60;63.80
59505;DHT22;45321;53.200;5.814;2022-08-03T13:29:10;28.70;62.50
59505;DHT22;45321;53.200;5.814;2022-08-03T13:31:36;28.60;63.10
59505;DHT22;45321;53.200;5.814;2022-08-03T13:34:01;28.70;62.60
59505;DHT22;45321;53.200;5.814;2022-08-03T13:36:27;28.60;62.90
59505;DHT22;45321;53.200;5.814;2022-08-03T13:38:52;28.50;62.30
59505;DHT22;45321;53.200;5.814;2022-08-03T13:41:18;28.50;62.90
59505;DHT22;45321;53.200;5.814;2022-08-03T13:43:44;28.40;63.40
59505;DHT22;45321;53.200;5.814;2022-08-03T13:46:09;28.30;62.80
59505;DHT22;45321;53.200;5.814;2022-08-03T13:48:35;28.20;63.70
59505;DHT22;45321;53.200;5.814;2022-08-03T13:51:00;28.30;62.60
59505;DHT22;45321;53.200;5.814;2022-08-03T13:53:26;28.40;63.20
59505;DHT22;45321;53.200;5.814;2022-08-03T13:55:51;28.40;62.60
59505;DHT22;45321;53.200;5.814;2022-08-03T13:58:17;28.60;63.60
59505;DHT22;45321;53.200;5.814;2022-08-03T14:00:43;28.60;63.30
59505;DHT22;45321;53.200;5.814;2022-08-03T14:03:08;28.60;63.30
59505;DHT22;45321;53.200;5.814;2022-08-03T14:05:34;28.70;63.20
59505;DHT22;45321;53.200;5.814;2022-08-03T14:08:00;28.70;63.70
59505;DHT22;45321;53.200;5.814;2022-08-03T14:10:26;28.80;63.10
59505;DHT22;45321;53.200;5.814;2022-08-03T14:12:51;28.90;62.80
59505;DHT22;45321;53.200;5.814;2022-08-03T14:15:17;29.10;62.60
59505;DHT22;45321;53.200;5.814;2022-08-03T14:17:43;29.20;62.20
59505;DHT22;45321;53.200;5.814;2022-08-03T14:20:08;29.50;61.00
59505;DHT22;45321;53.200;5.814;2022-08-03T14:22:34;29.60;61.10
59505;DHT22;45321;53.200;5.814;2022-08-03T14:25:00;29.70;60.10
59505;DHT22;45321;53.200;5.814;2022-08-03T14:27:25;29.60;59.90
59505;DHT22;45321;53.200;5.814;2022-08-03T14:29:51;29.40;60.10
59505;DHT22;45321;53.200;5.814;2022-08-03T14:32:16;29.60;60.50
59505;DHT22;45321;53.200;5.814;2022-08-03T14:34:42;30.00;60.70
59505;DHT22;45321;53.200;5.814;2022-08-03T14:37:08;30.50;60.50
59505;DHT22;45321;53.200;5.814;2022-08-03T14:39:33;30.90;59.70
59505;DHT22;45321;53.200;5.814;2022-08-03T14:41:59;31.10;59.10
59505;DHT22;45321;53.200;5.814;2022-08-03T14:44:24;31.50;59.00
59505;DHT22;45321;53.200;5.814;2022-08-03T14:46:50;31.90;56.70
59505;DHT22;45321;53.200;5.814;2022-08-03T14:49:15;32.10;56.50
59505;DHT22;45321;53.200;5.814;2022-08-03T14:51:41;32.40;54.90
59505;DHT22;45321;53.200;5.814;2022-08-03T14:54:07;32.60;54.70
59505;DHT22;45321;53.200;5.814;2022-08-03T14:56:32;32.80;54.10
59505;DHT22;45321;53.200;5.814;2022-08-03T14:58:58;32.90;54.00
59505;DHT22;45321;53.200;5.814;2022-08-03T15:01:23;33.00;53.70
59505;DHT22;45321;53.200;5.814;2022-08-03T15:03:49;33.10;53.80
59505;DHT22;45321;53.200;5.814;2022-08-03T15:06:14;33.20;52.40
59505;DHT22;45321;53.200;5.814;2022-08-03T15:08:40;33.10;52.50
59505;DHT22;45321;53.200;5.814;2022-08-03T15:11:06;33.10;52.10
59505;DHT22;45321;53.200;5.814;2022-08-03T15:13:31;32.80;53.00
59505;DHT22;45321;53.200;5.814;2022-08-03T15:15:57;32.50;53.10
59505;DHT22;45321;53.200;5.814;2022-08-03T15:18:22;32.30;53.90
59505;DHT22;45321;53.200;5.814;2022-08-03T15:20:48;31.90;54.40
59505;DHT22;45321;53.200;5.814;2022-08-03T15:23:15;31.30;55.20
59505;DHT22;45321;53.200;5.814;2022-08-03T15:25:41;30.80;56.50
59505;DHT22;45321;53.200;5.814;2022-08-03T15:28:07;30.30;56.50
59505;DHT22;45321;53.200;5.814;2022-08-03T15:30:32;30.10;58.70
59505;DHT22;45321;53.200;5.814;2022-08-03T15:33:01;30.00;59.00
59505;DHT22;45321;53.200;5.814;2022-08-03T15:35:26;29.80;59.60
59505;DHT22;45321;53.200;5.814;2022-08-03T15:37:53;29.70;59.40
59505;DHT22;45321;53.200;5.814;2022-08-03T15:40:18;29.70;60.10
59505;DHT22;45321;53.200;5.814;2022-08-03T15:42:44;29.60;59.70
59505;DHT22;45321;53.200;5.814;2022-08-03T15:45:10;29.50;60.50
59505;DHT22;45321;53.200;5.814;2022-08-03T15:47:35;29.40;60.30
59505;DHT22;45321;53.200;5.814;2022-08-03T15:50:01;29.30;60.50